sensor_id;sensor_type;location;lat;lon;timestamp;P1;durP1;ratioP1;P2;durP2;ratioP2
44048;SDS011;29717;47.028;15.470;2023-12-14T00:02:15;47.77;;;32.80;;
44048;SDS011;29717;47.028;15.470;2023-12-14T00:04:43;42.60;;;31.60;;
44048;SDS011;29717;47.028;15.470;2023-12-14T00:07:10;48.93;;;31.20;;
44048;SDS011;29717;47.028;15.470;2023-12-14T00:09:39;49.60;;;29.33;;
44048;SDS011;29717;47.028;15.470;2023-12-14T00:12:06;80.73;;;28.23;;
44048;SDS011;29717;47.028;15.470;2023-12-14T00:14:33;143.20;;;32.53;;
44048;SDS011;29717;47.028;15.470;2023-12-14T00:17:00;38.97;;;25.97;;
44048;SDS011;29717;47.028;15.470;2023-12-14T00:19:26;45.33;;;27.23;;
44048;SDS011;29717;47.028;15.470;2023-12-14T00:21:54;27.97;;;23.80;;
44048;SDS011;29717;47.028;15.470;2023-12-14T00:24:21;28.63;;;24.00;;
44048;SDS011;29717;47.028;15.470;2023-12-14T00:26:48;36.63;;;29.00;;
44048;SDS011;29717;47.028;15.470;2023-12-14T00:29:14;38.07;;;28.27;;
44048;SDS011;29717;47.028;15.470;2023-12-14T00:31:41;40.63;;;27.17;;
44048;SDS011;29717;47.028;15.470;2023-12-14T00:34:08;30.50;;;25.70;;
44048;SDS011;29717;47.028;15.470;2023-12-14T00:36:34;30.20;;;23.50;;
44048;SDS011;29717;47.028;15.470;2023-12-14T00:39:03;29.37;;;24.77;;
44048;SDS011;29717;47.028;15.470;2023-12-14T00:41:30;30.47;;;25.03;;
44048;SDS011;29717;47.028;15.470;2023-12-14T00:43:57;30.17;;;25.00;;
44048;SDS011;29717;47.028;15.470;2023-12-14T00:46:24;32.27;;;27.07;;
44048;SDS011;29717;47.028;15.470;2023-12-14T00:48:50;27.07;;;23.30;;
44048;SDS011;29717;47.028;15.470;2023-12-14T00:51:17;41.13;;;28.00;;
44048;SDS011;29717;47.028;15.470;2023-12-14T00:53:44;30.90;;;23.33;;
44048;SDS011;29717;47.028;15.470;2023-12-14T00:56:12;26.53;;;21.97;;
44048;SDS011;29717;47.028;15.470;2023-12-14T00:58:39;24.30;;;21.70;;
44048;SDS011;29717;47.028;15.470;2023-12-14T01:01:06;26.80;;;23.97;;
44048;SDS011;29717;47.028;15.470;2023-12-14T01:03:32;30.00;;;24.37;;
44048;SDS011;29717;47.028;15.470;2023-12-14T01:05:59;24.87;;;22.13;;
44048;SDS011;29717;47.028;15.470;2023-12-14T01:08:26;24.40;;;21.80;;
44048;SDS011;29717;47.028;15.470;2023-12-14T01:10:52;27.63;;;23.07;;
44048;SDS011;29717;47.028;15.470;2023-12-14T01:13:21;28.33;;;24.33;;
44048;SDS011;29717;47.028;15.470;2023-12-14T01:15:47;26.20;;;23.40;;
44048;SDS011;29717;47.028;15.470;2023-12-14T01:18:14;24.13;;;21.60;;
44048;SDS011;29717;47.028;15.470;2023-12-14T01:20:42;25.13;;;21.77;;
44048;SDS011;29717;47.028;15.470;2023-12-14T01:23:09;25.30;;;21.83;;
44048;SDS011;29717;47.028;15.470;2023-12-14T01:25:35;32.80;;;25.90;;
44048;SDS011;29717;47.028;15.470;2023-12-14T01:28:02;27.73;;;24.27;;
44048;SDS011;29717;47.028;15.470;2023-12-14T01:30:31;26.03;;;22.30;;
44048;SDS011;29717;47.028;15.470;2023-12-14T01:32:57;29.03;;;24.70;;
44048;SDS011;29717;47.028;15.470;2023-12-14T01:35:24;25.67;;;22.77;;
44048;SDS011;29717;47.028;15.470;2023-12-14T01:37:51;25.43;;;22.20;;
44048;SDS011;29717;47.028;15.470;2023-12-14T01:40:18;25.70;;;21.53;;
44048;SDS011;29717;47.028;15.470;2023-12-14T01:42:46;24.70;;;21.93;;
44048;SDS011;29717;47.028;15.470;2023-12-14T01:45:12;23.47;;;21.00;;
44048;SDS011;29717;47.028;15.470;2023-12-14T01:47:42;24.33;;;21.80;;
44048;SDS011;29717;47.028;15.470;2023-12-14T01:50:09;23.33;;;20.87;;
44048;SDS011;29717;47.028;15.470;2023-12-14T01:52:36;27.27;;;23.27;;
44048;SDS011;29717;47.028;15.470;2023-12-14T01:55:03;25.60;;;22.10;;
44048;SDS011;29717;47.028;15.470;2023-12-14T01:57:30;25.20;;;22.20;;
44048;SDS011;29717;47.028;15.470;2023-12-14T01:59:56;26.20;;;23.40;;
44048;SDS011;29717;47.028;15.470;2023-12-14T02:02:23;27.30;;;24.20;;
44048;SDS011;29717;47.028;15.470;2023-12-14T02:04:51;25.23;;;22.53;;
44048;SDS011;29717;47.028;15.470;2023-12-14T02:07:18;29.10;;;24.23;;
44048;SDS011;29717;47.028;15.470;2023-12-14T02:09:45;23.03;;;20.60;;
44048;SDS011;29717;47.028;15.470;2023-12-14T02:12:12;24.77;;;21.57;;
44048;SDS011;29717;47.028;15.470;2023-12-14T02:14:38;25.47;;;22.73;;
44048;SDS011;29717;47.028;15.470;2023-12-14T02:17:05;25.30;;;22.60;;
44048;SDS011;29717;47.028;15.470;2023-12-14T02:19:32;28.27;;;25.17;;
44048;SDS011;29717;47.028;15.470;2023-12-14T02:22:00;32.00;;;25.63;;
44048;SDS011;29717;47.028;15.470;2023-12-14T02:24:28;28.93;;;25.53;;
44048;SDS011;29717;47.028;15.470;2023-12-14T02:26:56;27.00;;;23.60;;
44048;SDS011;29717;47.028;15.470;2023-12-14T02:29:23;28.33;;;24.67;;
44048;SDS011;29717;47.028;15.470;2023-12-14T02:31:49;29.03;;;25.70;;
44048;SDS011;29717;47.028;15.470;2023-12-14T02:34:16;43.17;;;28.67;;
44048;SDS011;29717;47.028;15.470;2023-12-14T02:36:44;51.40;;;30.23;;
44048;SDS011;29717;47.028;15.470;2023-12-14T02:39:10;42.17;;;30.07;;
44048;SDS011;29717;47.028;15.470;2023-12-14T02:41:39;46.50;;;31.47;;
44048;SDS011;29717;47.028;15.470;2023-12-14T02:44:05;27.30;;;24.40;;
44048;SDS011;29717;47.028;15.470;2023-12-14T02:46:32;44.80;;;32.37;;
44048;SDS011;29717;47.028;15.470;2023-12-14T02:48:59;48.97;;;31.70;;
44048;SDS011;29717;47.028;15.470;2023-12-14T02:51:25;33.53;;;27.97;;
44048;SDS011;29717;47.028;15.470;2023-12-14T02:53:52;29.37;;;24.07;;
44048;SDS011;29717;47.028;15.470;2023-12-14T02:56:19;30.60;;;25.03;;
44048;SDS011;29717;47.028;15.470;2023-12-14T02:58:47;25.77;;;23.03;;
44048;SDS011;29717;47.028;15.470;2023-12-14T03:01:18;27.70;;;23.13;;
44048;SDS011;29717;47.028;15.470;2023-12-14T03:03:45;23.87;;;21.07;;
44048;SDS011;29717;47.028;15.470;2023-12-14T03:06:12;23.93;;;21.47;;
44048;SDS011;29717;47.028;15.470;2023-12-14T03:08:39;25.00;;;22.40;;
44048;SDS011;29717;47.028;15.470;2023-12-14T03:11:05;26.97;;;22.10;;
44048;SDS011;29717;47.028;15.470;2023-12-14T03:13:32;24.37;;;20.80;;
44048;SDS011;29717;47.028;15.470;2023-12-14T03:16:00;23.60;;;20.63;;
44048;SDS011;29717;47.028;15.470;2023-12-14T03:18:27;36.10;;;20.60;;
44048;SDS011;29717;47.028;15.470;2023-12-14T03:20:54;34.23;;;21.33;;
44048;SDS011;29717;47.028;15.470;2023-12-14T03:23:20;22.90;;;18.27;;
44048;SDS011;29717;47.028;15.470;2023-12-14T03:25:47;22.33;;;18.63;;
44048;SDS011;29717;47.028;15.470;2023-12-14T03:28:14;21.47;;;16.73;;
44048;SDS011;29717;47.028;15.470;2023-12-14T03:30:41;17.83;;;15.93;;
44048;SDS011;29717;47.028;15.470;2023-12-14T03:33:09;20.03;;;17.33;;
44048;SDS011;29717;47.028;15.470;2023-12-14T03:35:36;24.33;;;20.93;;
44048;SDS011;29717;47.028;15.470;2023-12-14T03:38:02;22.17;;;18.93;;
44048;SDS011;29717;47.028;15.470;2023-12-14T03:40:29;19.57;;;17.20;;
44048;SDS011;29717;47.028;15.470;2023-12-14T03:42:56;20.80;;;17.57;;
44048;SDS011;29717;47.028;15.470;2023-12-14T03:45:22;17.90;;;16.10;;
44048;SDS011;29717;47.028;15.470;2023-12-14T03:47:49;17.73;;;15.93;;
44048;SDS011;29717;47.028;15.470;2023-12-14T03:50:17;49.90;;;16.73;;
44048;SDS011;29717;47.028;15.470;2023-12-14T03:52:44;16.73;;;15.03;;
44048;SDS011;29717;47.028;15.470;2023-12-14T03:55:11;16.07;;;14.37;;
44048;SDS011;29717;47.028;15.470;2023-12-14T03:57:40;16.33;;;14.73;;
44048;SDS011;29717;47.028;15.470;2023-12-14T04:00:09;16.63;;;14.50;;
44048;SDS011;29717;47.028;15.470;2023-12-14T04:02:36;50.77;;;17.47;;
44048;SDS011;29717;47.028;15.470;2023-12-14T04:05:03;15.77;;;14.13;;
44048;SDS011;29717;47.028;15.470;2023-12-14T04:07:31;18.17;;;16.27;;
44048;SDS011;29717;47.028;15.470;2023-12-14T04:09:58;18.03;;;16.13;;
44048;SDS011;29717;47.028;15.470;2023-12-14T04:12:24;19.43;;;17.43;;
44048;SDS011;29717;47.028;15.470;2023-12-14T04:14:51;20.17;;;17.40;;
44048;SDS011;29717;47.028;15.470;2023-12-14T04:17:18;28.97;;;24.27;;
44048;SDS011;29717;47.028;15.470;2023-12-14T04:19:45;25.57;;;19.90;;
44048;SDS011;29717;47.028;15.470;2023-12-14T04:22:11;24.50;;;21.77;;
44048;SDS011;29717;47.028;15.470;2023-12-14T04:24:39;23.60;;;20.83;;
44048;SDS011;29717;47.028;15.470;2023-12-14T04:27:06;25.97;;;22.47;;
44048;SDS011;29717;47.028;15.470;2023-12-14T04:29:33;24.13;;;21.63;;
44048;SDS011;29717;47.028;15.470;2023-12-14T04:32:00;24.50;;;21.53;;
44048;SDS011;29717;47.028;15.470;2023-12-14T04:34:26;34.37;;;24.87;;
44048;SDS011;29717;47.028;15.470;2023-12-14T04:36:53;37.97;;;20.97;;
44048;SDS011;29717;47.028;15.470;2023-12-14T04:39:23;96.00;;;26.13;;
44048;SDS011;29717;47.028;15.470;2023-12-14T04:41:51;23.93;;;20.33;;
44048;SDS011;29717;47.028;15.470;2023-12-14T04:44:18;20.67;;;18.53;;
44048;SDS011;29717;47.028;15.470;2023-12-14T04:46:46;22.97;;;20.20;;
44048;SDS011;29717;47.028;15.470;2023-12-14T04:49:13;33.97;;;19.20;;
44048;SDS011;29717;47.028;15.470;2023-12-14T04:51:40;100.37;;;24.80;;
44048;SDS011;29717;47.028;15.470;2023-12-14T04:54:07;23.27;;;20.50;;
44048;SDS011;29717;47.028;15.470;2023-12-14T04:56:33;39.03;;;26.57;;
44048;SDS011;29717;47.028;15.470;2023-12-14T04:59:02;56.57;;;28.63;;
44048;SDS011;29717;47.028;15.470;2023-12-14T05:01:28;37.90;;;26.63;;
44048;SDS011;29717;47.028;15.470;2023-12-14T05:03:55;180.83;;;31.17;;
44048;SDS011;29717;47.028;15.470;2023-12-14T05:06:22;88.70;;;29.53;;
44048;SDS011;29717;47.028;15.470;2023-12-14T05:08:49;51.93;;;25.43;;
44048;SDS011;29717;47.028;15.470;2023-12-14T05:11:15;29.30;;;25.37;;
44048;SDS011;29717;47.028;15.470;2023-12-14T05:13:42;31.03;;;23.30;;
44048;SDS011;29717;47.028;15.470;2023-12-14T05:16:14;39.60;;;25.33;;
44048;SDS011;29717;47.028;15.470;2023-12-14T05:18:41;26.30;;;21.87;;
44048;SDS011;29717;47.028;15.470;2023-12-14T05:21:07;25.77;;;21.90;;
44048;SDS011;29717;47.028;15.470;2023-12-14T05:23:34;31.80;;;25.00;;
44048;SDS011;29717;47.028;15.470;2023-12-14T05:26:01;24.83;;;21.43;;
44048;SDS011;29717;47.028;15.470;2023-12-14T05:28:28;50.03;;;27.70;;
44048;SDS011;29717;47.028;15.470;2023-12-14T05:30:54;59.47;;;30.60;;
44048;SDS011;29717;47.028;15.470;2023-12-14T05:33:23;53.40;;;26.73;;
44048;SDS011;29717;47.028;15.470;2023-12-14T05:35:49;25.37;;;22.63;;
44048;SDS011;29717;47.028;15.470;2023-12-14T05:38:16;27.23;;;23.20;;
44048;SDS011;29717;47.028;15.470;2023-12-14T05:40:43;34.60;;;26.40;;
44048;SDS011;29717;47.028;15.470;2023-12-14T05:43:09;37.00;;;23.07;;
44048;SDS011;29717;47.028;15.470;2023-12-14T05:45:36;41.43;;;26.20;;
44048;SDS011;29717;47.028;15.470;2023-12-14T05:48:03;36.57;;;26.37;;
44048;SDS011;29717;47.028;15.470;2023-12-14T05:50:32;32.50;;;26.43;;
44048;SDS011;29717;47.028;15.470;2023-12-14T05:52:58;24.53;;;21.73;;
44048;SDS011;29717;47.028;15.470;2023-12-14T05:55:25;32.10;;;22.20;;
44048;SDS011;29717;47.028;15.470;2023-12-14T05:57:52;103.83;;;28.53;;
44048;SDS011;29717;47.028;15.470;2023-12-14T06:00:20;28.20;;;23.87;;
44048;SDS011;29717;47.028;15.470;2023-12-14T06:02:47;28.30;;;23.73;;
44048;SDS011;29717;47.028;15.470;2023-12-14T06:05:13;24.80;;;20.40;;
44048;SDS011;29717;47.028;15.470;2023-12-14T06:07:42;41.37;;;26.57;;
44048;SDS011;29717;47.028;15.470;2023-12-14T06:10:09;25.33;;;21.97;;
44048;SDS011;29717;47.028;15.470;2023-12-14T06:12:36;24.80;;;22.20;;
44048;SDS011;29717;47.028;15.470;2023-12-14T06:15:03;26.70;;;21.33;;
44048;SDS011;29717;47.028;15.470;2023-12-14T06:17:30;23.00;;;20.50;;
44048;SDS011;29717;47.028;15.470;2023-12-14T06:19:59;25.13;;;20.30;;
44048;SDS011;29717;47.028;15.470;2023-12-14T06:22:25;22.20;;;19.90;;
44048;SDS011;29717;47.028;15.470;2023-12-14T06:24:54;23.07;;;20.47;;
44048;SDS011;29717;47.028;15.470;2023-12-14T06:27:20;26.77;;;22.33;;
44048;SDS011;29717;47.028;15.470;2023-12-14T06:29:51;22.67;;;20.33;;
44048;SDS011;29717;47.028;15.470;2023-12-14T06:32:18;22.83;;;20.43;;
44048;SDS011;29717;47.028;15.470;2023-12-14T06:34:45;36.13;;;23.37;;
44048;SDS011;29717;47.028;15.470;2023-12-14T06:37:11;216.37;;;42.77;;
44048;SDS011;29717;47.028;15.470;2023-12-14T06:39:38;36.40;;;27.83;;
44048;SDS011;29717;47.028;15.470;2023-12-14T06:42:08;122.40;;;35.80;;
44048;SDS011;29717;47.028;15.470;2023-12-14T06:44:35;52.23;;;30.27;;
44048;SDS011;29717;47.028;15.470;2023-12-14T06:47:01;61.00;;;29.63;;
44048;SDS011;29717;47.028;15.470;2023-12-14T06:49:28;36.73;;;28.03;;
44048;SDS011;29717;47.028;15.470;2023-12-14T06:51:55;41.23;;;27.47;;
44048;SDS011;29717;47.028;15.470;2023-12-14T06:54:22;30.17;;;26.03;;
44048;SDS011;29717;47.028;15.470;2023-12-14T06:56:48;32.43;;;27.17;;
44048;SDS011;29717;47.028;15.470;2023-12-14T06:59:16;64.27;;;32.27;;
44048;SDS011;29717;47.028;15.470;2023-12-14T07:01:43;31.93;;;25.70;;
44048;SDS011;29717;47.028;15.470;2023-12-14T07:04:10;30.23;;;26.00;;
44048;SDS011;29717;47.028;15.470;2023-12-14T07:06:36;28.77;;;25.63;;
44048;SDS011;29717;47.028;15.470;2023-12-14T07:09:03;41.50;;;29.63;;
44048;SDS011;29717;47.028;15.470;2023-12-14T07:11:30;34.53;;;27.43;;
44048;SDS011;29717;47.028;15.470;2023-12-14T07:13:57;28.60;;;25.50;;
44048;SDS011;29717;47.028;15.470;2023-12-14T07:16:25;33.23;;;28.00;;
44048;SDS011;29717;47.028;15.470;2023-12-14T07:18:52;35.77;;;29.67;;
44048;SDS011;29717;47.028;15.470;2023-12-14T07:21:19;36.07;;;28.87;;
44048;SDS011;29717;47.028;15.470;2023-12-14T07:23:44;40.60;;;31.50;;
44048;SDS011;29717;47.028;15.470;2023-12-14T07:26:11;35.03;;;29.00;;
44048;SDS011;29717;47.028;15.470;2023-12-14T07:28:38;32.47;;;27.83;;
44048;SDS011;29717;47.028;15.470;2023-12-14T07:31:05;57.43;;;35.90;;
44048;SDS011;29717;47.028;15.470;2023-12-14T07:33:33;33.67;;;29.07;;
44048;SDS011;29717;47.028;15.470;2023-12-14T07:36:00;32.23;;;27.37;;
44048;SDS011;29717;47.028;15.470;2023-12-14T07:38:27;32.17;;;27.80;;
44048;SDS011;29717;47.028;15.470;2023-12-14T07:40:54;31.23;;;26.43;;
44048;SDS011;29717;47.028;15.470;2023-12-14T07:43:21;51.20;;;33.00;;
44048;SDS011;29717;47.028;15.470;2023-12-14T07:45:48;41.33;;;30.50;;
44048;SDS011;29717;47.028;15.470;2023-12-14T07:48:14;31.80;;;25.90;;
44048;SDS011;29717;47.028;15.470;2023-12-14T07:50:43;30.90;;;24.57;;
44048;SDS011;29717;47.028;15.470;2023-12-14T07:53:11;29.57;;;25.17;;
44048;SDS011;29717;47.028;15.470;2023-12-14T07:55:37;34.07;;;25.90;;
44048;SDS011;29717;47.028;15.470;2023-12-14T07:58:04;31.80;;;26.00;;
44048;SDS011;29717;47.028;15.470;2023-12-14T08:00:31;27.77;;;24.40;;
44048;SDS011;29717;47.028;15.470;2023-12-14T08:02:58;26.70;;;23.87;;
44048;SDS011;29717;47.028;15.470;2023-12-14T08:05:25;26.17;;;23.43;;
44048;SDS011;29717;47.028;15.470;2023-12-14T08:07:54;29.73;;;24.47;;
44048;SDS011;29717;47.028;15.470;2023-12-14T08:10:20;27.83;;;24.87;;
44048;SDS011;29717;47.028;15.470;2023-12-14T08:12:47;28.83;;;23.77;;
44048;SDS011;29717;47.028;15.470;2023-12-14T08:15:14;33.10;;;27.03;;
44048;SDS011;29717;47.028;15.470;2023-12-14T08:17:41;32.20;;;26.77;;
44048;SDS011;29717;47.028;15.470;2023-12-14T08:20:08;32.77;;;26.37;;
44048;SDS011;29717;47.028;15.470;2023-12-14T08:22:36;28.83;;;25.03;;
44048;SDS011;29717;47.028;15.470;2023-12-14T08:25:10;28.97;;;24.30;;
44048;SDS011;29717;47.028;15.470;2023-12-14T08:27:37;29.00;;;24.73;;
44048;SDS011;29717;47.028;15.470;2023-12-14T08:30:05;29.77;;;26.10;;
44048;SDS011;29717;47.028;15.470;2023-12-14T08:32:32;30.90;;;25.43;;
44048;SDS011;29717;47.028;15.470;2023-12-14T08:34:58;35.07;;;25.90;;
44048;SDS011;29717;47.028;15.470;2023-12-14T08:37:25;30.03;;;22.67;;
44048;SDS011;29717;47.028;15.470;2023-12-14T08:39:53;31.60;;;24.93;;
44048;SDS011;29717;47.028;15.470;2023-12-14T08:42:22;30.40;;;23.67;;
44048;SDS011;29717;47.028;15.470;2023-12-14T08:44:48;27.47;;;21.27;;
44048;SDS011;29717;47.028;15.470;2023-12-14T08:47:15;22.90;;;19.67;;
44048;SDS011;29717;47.028;15.470;2023-12-14T08:49:42;24.77;;;20.70;;
44048;SDS011;29717;47.028;15.470;2023-12-14T08:52:08;22.27;;;18.37;;
44048;SDS011;29717;47.028;15.470;2023-12-14T08:54:37;22.07;;;17.77;;
44048;SDS011;29717;47.028;15.470;2023-12-14T08:57:03;23.38;;;19.00;;
44048;SDS011;29717;47.028;15.470;2023-12-14T08:59:31;20.45;;;18.25;;
44048;SDS011;29717;47.028;15.470;2023-12-14T09:01:58;19.05;;;16.83;;
44048;SDS011;29717;47.028;15.470;2023-12-14T09:04:25;19.75;;;17.00;;
44048;SDS011;29717;47.028;15.470;2023-12-14T09:06:52;17.65;;;15.82;;
44048;SDS011;29717;47.028;15.470;2023-12-14T09:09:19;17.17;;;15.43;;
44048;SDS011;29717;47.028;15.470;2023-12-14T09:11:45;20.08;;;17.83;;
44048;SDS011;29717;47.028;15.470;2023-12-14T09:14:12;19.55;;;17.55;;
44048;SDS011;29717;47.028;15.470;2023-12-14T09:16:40;21.42;;;17.25;;
44048;SDS011;29717;47.028;15.470;2023-12-14T09:19:08;19.63;;;17.55;;
44048;SDS011;29717;47.028;15.470;2023-12-14T09:21:36;18.77;;;16.83;;
44048;SDS011;29717;47.028;15.470;2023-12-14T09:24:02;19.52;;;17.23;;
44048;SDS011;29717;47.028;15.470;2023-12-14T09:26:29;16.75;;;13.80;;
44048;SDS011;29717;47.028;15.470;2023-12-14T09:28:56;13.48;;;11.88;;
44048;SDS011;29717;47.028;15.470;2023-12-14T09:31:23;13.80;;;12.40;;
44048;SDS011;29717;47.028;15.470;2023-12-14T09:33:51;14.75;;;13.13;;
44048;SDS011;29717;47.028;15.470;2023-12-14T09:36:18;16.90;;;14.32;;
44048;SDS011;29717;47.028;15.470;2023-12-14T09:38:44;16.17;;;14.48;;
44048;SDS011;29717;47.028;15.470;2023-12-14T09:41:12;16.55;;;13.73;;
44048;SDS011;29717;47.028;15.470;2023-12-14T09:43:39;19.95;;;13.27;;
44048;SDS011;29717;47.028;15.470;2023-12-14T09:46:06;15.55;;;13.30;;
44048;SDS011;29717;47.028;15.470;2023-12-14T09:48:34;14.25;;;12.70;;
44048;SDS011;29717;47.028;15.470;2023-12-14T09:51:02;17.25;;;12.80;;
44048;SDS011;29717;47.028;15.470;2023-12-14T09:53:30;17.30;;;12.25;;
44048;SDS011;29717;47.028;15.470;2023-12-14T09:55:56;14.07;;;12.77;;
44048;SDS011;29717;47.028;15.470;2023-12-14T09:58:23;14.73;;;12.38;;
44048;SDS011;29717;47.028;15.470;2023-12-14T10:00:50;13.13;;;11.82;;
44048;SDS011;29717;47.028;15.470;2023-12-14T10:03:23;17.10;;;12.50;;
44048;SDS011;29717;47.028;15.470;2023-12-14T10:05:51;12.68;;;11.30;;
44048;SDS011;29717;47.028;15.470;2023-12-14T10:08:20;13.15;;;11.63;;
44048;SDS011;29717;47.028;15.470;2023-12-14T10:10:48;16.33;;;13.95;;
44048;SDS011;29717;47.028;15.470;2023-12-14T10:13:16;15.70;;;13.32;;
44048;SDS011;29717;47.028;15.470;2023-12-14T10:15:43;15.55;;;13.05;;
44048;SDS011;29717;47.028;15.470;2023-12-14T10:18:10;14.43;;;12.93;;
44048;SDS011;29717;47.028;15.470;2023-12-14T10:20:37;13.68;;;11.35;;
44048;SDS011;29717;47.028;15.470;2023-12-14T10:23:06;13.80;;;11.15;;
44048;SDS011;29717;47.028;15.470;2023-12-14T10:25:36;12.55;;;11.02;;
44048;SDS011;29717;47.028;15.470;2023-12-14T10:28:03;13.20;;;11.88;;
44048;SDS011;29717;47.028;15.470;2023-12-14T10:30:30;11.43;;;10.32;;
44048;SDS011;29717;47.028;15.470;2023-12-14T10:32:57;14.05;;;12.55;;
44048;SDS011;29717;47.028;15.470;2023-12-14T10:35:24;14.60;;;12.85;;
44048;SDS011;29717;47.028;15.470;2023-12-14T10:37:51;14.27;;;12.77;;
44048;SDS011;29717;47.028;15.470;2023-12-14T10:40:18;13.77;;;12.20;;
44048;SDS011;29717;47.028;15.470;2023-12-14T10:42:47;13.70;;;12.30;;
44048;SDS011;29717;47.028;15.470;2023-12-14T10:45:14;13.60;;;12.20;;
44048;SDS011;29717;47.028;15.470;2023-12-14T10:47:43;15.90;;;12.52;;
44048;SDS011;29717;47.028;15.470;2023-12-14T10:50:10;13.55;;;12.25;;
44048;SDS011;29717;47.028;15.470;2023-12-14T10:52:37;14.55;;;11.95;;
44048;SDS011;29717;47.028;15.470;2023-12-14T10:55:06;13.40;;;12.00;;
44048;SDS011;29717;47.028;15.470;2023-12-14T10:57:33;13.32;;;11.95;;
44048;SDS011;29717;47.028;15.470;2023-12-14T11:00:02;12.85;;;11.45;;
44048;SDS011;29717;47.028;15.470;2023-12-14T11:02:37;14.20;;;12.15;;
44048;SDS011;29717;47.028;15.470;2023-12-14T11:05:04;26.58;;;22.45;;
44048;SDS011;29717;47.028;15.470;2023-12-14T11:07:47;14.65;;;13.05;;
44048;SDS011;29717;47.028;15.470;2023-12-14T11:10:15;23.30;;;19.27;;
44048;SDS011;29717;47.028;15.470;2023-12-14T11:12:50;19.33;;;17.42;;
44048;SDS011;29717;47.028;15.470;2023-12-14T11:15:18;17.85;;;15.73;;
44048;SDS011;29717;47.028;15.470;2023-12-14T11:20:27;10.25;;;9.25;;
44048;SDS011;29717;47.028;15.470;2023-12-14T11:22:55;11.50;;;9.88;;
44048;SDS011;29717;47.028;15.470;2023-12-14T11:25:23;11.77;;;10.68;;
44048;SDS011;29717;47.028;15.470;2023-12-14T11:27:50;13.80;;;10.30;;
44048;SDS011;29717;47.028;15.470;2023-12-14T11:30:17;11.90;;;10.70;;
44048;SDS011;29717;47.028;15.470;2023-12-14T11:32:45;12.18;;;10.90;;
44048;SDS011;29717;47.028;15.470;2023-12-14T11:35:12;12.30;;;10.82;;
44048;SDS011;29717;47.028;15.470;2023-12-14T11:37:39;14.88;;;10.57;;
44048;SDS011;29717;47.028;15.470;2023-12-14T11:40:07;13.00;;;11.20;;
44048;SDS011;29717;47.028;15.470;2023-12-14T11:42:34;12.55;;;11.10;;
44048;SDS011;29717;47.028;15.470;2023-12-14T11:45:01;12.63;;;11.32;;
44048;SDS011;29717;47.028;15.470;2023-12-14T11:47:28;13.00;;;11.63;;
44048;SDS011;29717;47.028;15.470;2023-12-14T11:49:56;16.10;;;11.75;;
44048;SDS011;29717;47.028;15.470;2023-12-14T11:52:23;12.75;;;11.45;;
44048;SDS011;29717;47.028;15.470;2023-12-14T11:54:50;15.30;;;12.45;;
44048;SDS011;29717;47.028;15.470;2023-12-14T11:57:17;12.40;;;10.85;;
44048;SDS011;29717;47.028;15.470;2023-12-14T11:59:44;17.65;;;12.43;;
44048;SDS011;29717;47.028;15.470;2023-12-14T12:02:11;13.70;;;11.75;;
44048;SDS011;29717;47.028;15.470;2023-12-14T12:04:38;14.20;;;12.70;;
44048;SDS011;29717;47.028;15.470;2023-12-14T12:07:17;15.32;;;12.57;;
44048;SDS011;29717;47.028;15.470;2023-12-14T12:09:44;14.55;;;13.05;;
44048;SDS011;29717;47.028;15.470;2023-12-14T12:12:11;17.80;;;13.02;;
44048;SDS011;29717;47.028;15.470;2023-12-14T12:14:39;20.38;;;13.07;;
44048;SDS011;29717;47.028;15.470;2023-12-14T12:17:07;15.32;;;12.63;;
44048;SDS011;29717;47.028;15.470;2023-12-14T12:19:34;14.95;;;12.18;;
44048;SDS011;29717;47.028;15.470;2023-12-14T12:22:01;14.60;;;12.85;;
44048;SDS011;29717;47.028;15.470;2023-12-14T12:24:29;13.85;;;12.43;;
44048;SDS011;29717;47.028;15.470;2023-12-14T12:26:56;15.93;;;12.20;;
44048;SDS011;29717;47.028;15.470;2023-12-14T12:29:22;16.20;;;13.63;;
44048;SDS011;29717;47.028;15.470;2023-12-14T12:31:49;13.93;;;11.75;;
44048;SDS011;29717;47.028;15.470;2023-12-14T12:34:16;15.90;;;11.48;;
44048;SDS011;29717;47.028;15.470;2023-12-14T12:36:43;12.35;;;11.05;;
44048;SDS011;29717;47.028;15.470;2023-12-14T12:39:10;12.95;;;11.13;;
44048;SDS011;29717;47.028;15.470;2023-12-14T12:41:38;13.20;;;10.32;;
44048;SDS011;29717;47.028;15.470;2023-12-14T12:44:05;12.57;;;11.23;;
44048;SDS011;29717;47.028;15.470;2023-12-14T12:46:33;12.88;;;11.10;;
44048;SDS011;29717;47.028;15.470;2023-12-14T12:49:00;13.10;;;10.48;;
44048;SDS011;29717;47.028;15.470;2023-12-14T12:51:27;12.73;;;10.02;;
44048;SDS011;29717;47.028;15.470;2023-12-14T12:53:54;11.55;;;10.45;;
44048;SDS011;29717;47.028;15.470;2023-12-14T12:56:22;12.70;;;10.15;;
44048;SDS011;29717;47.028;15.470;2023-12-14T12:58:50;13.93;;;10.05;;
44048;SDS011;29717;47.028;15.470;2023-12-14T13:01:19;11.45;;;9.63;;
44048;SDS011;29717;47.028;15.470;2023-12-14T13:03:46;12.75;;;10.50;;
44048;SDS011;29717;47.028;15.470;2023-12-14T13:06:13;15.10;;;9.85;;
44048;SDS011;29717;47.028;15.470;2023-12-14T13:08:39;10.13;;;9.13;;
44048;SDS011;29717;47.028;15.470;2023-12-14T13:11:06;12.85;;;9.30;;
44048;SDS011;29717;47.028;15.470;2023-12-14T13:13:33;9.35;;;7.72;;
44048;SDS011;29717;47.028;15.470;2023-12-14T13:16:01;9.38;;;8.02;;
44048;SDS011;29717;47.028;15.470;2023-12-14T13:18:28;9.65;;;7.95;;
44048;SDS011;29717;47.028;15.470;2023-12-14T13:20:55;9.30;;;7.28;;
44048;SDS011;29717;47.028;15.470;2023-12-14T13:23:22;7.68;;;6.82;;
44048;SDS011;29717;47.028;15.470;2023-12-14T13:25:49;8.18;;;7.38;;
44048;SDS011;29717;47.028;15.470;2023-12-14T13:28:16;8.18;;;7.38;;
44048;SDS011;29717;47.028;15.470;2023-12-14T13:30:42;8.70;;;7.25;;
44048;SDS011;29717;47.028;15.470;2023-12-14T13:33:11;8.23;;;6.50;;
44048;SDS011;29717;47.028;15.470;2023-12-14T13:35:37;7.90;;;7.07;;
44048;SDS011;29717;47.028;15.470;2023-12-14T13:38:04;7.35;;;6.43;;
44048;SDS011;29717;47.028;15.470;2023-12-14T13:40:31;10.23;;;7.30;;
44048;SDS011;29717;47.028;15.470;2023-12-14T13:42:57;8.70;;;6.80;;
44048;SDS011;29717;47.028;15.470;2023-12-14T13:45:29;8.45;;;7.13;;
44048;SDS011;29717;47.028;15.470;2023-12-14T13:47:56;30.88;;;19.48;;
44048;SDS011;29717;47.028;15.470;2023-12-14T13:50:25;25.52;;;18.58;;
44048;SDS011;29717;47.028;15.470;2023-12-14T13:52:52;15.40;;;13.00;;
44048;SDS011;29717;47.028;15.470;2023-12-14T13:55:20;12.00;;;9.25;;
44048;SDS011;29717;47.028;15.470;2023-12-14T13:57:47;9.73;;;8.73;;
44048;SDS011;29717;47.028;15.470;2023-12-14T14:00:14;11.45;;;8.38;;
44048;SDS011;29717;47.028;15.470;2023-12-14T14:02:41;12.25;;;8.73;;
44048;SDS011;29717;47.028;15.470;2023-12-14T14:05:08;13.23;;;9.63;;
44048;SDS011;29717;47.028;15.470;2023-12-14T14:07:36;26.42;;;18.58;;
44048;SDS011;29717;47.028;15.470;2023-12-14T14:10:03;23.23;;;16.40;;
44048;SDS011;29717;47.028;15.470;2023-12-14T14:12:30;18.88;;;15.15;;
44048;SDS011;29717;47.028;15.470;2023-12-14T14:14:57;10.65;;;9.55;;